Time;durP1;ratioP1;P1;durP2;ratioP2;P2;SDS_P1;SDS_P2;PMS_P1;PMS_P2;Temp;Humidity;BMP_temperature;BMP_pressure;BME280_temperature;BME280_humidity;BME280_pressure;Samples;Min_cycle;Max_cycle;Signal;HPM_P1;HPM_P2
2021/11/24 00:01:53;;;;;;;85.22;39.08;;;7.10;99.90;;;;;;5110589;28;20027;-47
2021/11/24 00:04:19;;;;;;;85.90;40.35;;;7.20;99.90;;;;;;5112463;28;20114;-47
2021/11/24 00:06:45;;;;;;;82.32;40.92;;;7.20;99.90;;;;;;5112708;28;20099;-48
2021/11/24 00:09:11;;;;;;;89.38;39.55;;;7.20;99.90;;;;;;5112474;28;20027;-47
2021/11/24 00:11:36;;;;;;;87.75;41.95;;;7.20;99.90;;;;;;5111950;28;20019;-48
2021/11/24 00:14:02;;;;;;;88.07;39.92;;;7.20;99.90;;;;;;5112791;28;20476;-47
2021/11/24 00:16:27;;;;;;;87.13;39.53;;;7.20;99.90;;;;;;5112251;28;20068;-46
2021/11/24 00:18:53;;;;;;;90.35;41.90;;;7.20;99.90;;;;;;5110778;28;20027;-47
2021/11/24 00:21:19;;;;;;;88.32;40.35;;;7.20;99.90;;;;;;5097704;28;20408;-47
2021/11/24 00:23:45;;;;;;;78.78;38.45;;;7.20;99.90;;;;;;5108179;28;20497;-50
2021/11/24 00:26:11;;;;;;;94.40;41.30;;;7.30;99.90;;;;;;5112205;28;20027;-48
2021/11/24 00:28:37;;;;;;;81.63;40.22;;;7.30;99.90;;;;;;5112000;28;20370;-49
2021/11/24 00:31:03;;;;;;;84.15;39.55;;;7.30;99.90;;;;;;5111856;28;20023;-47
2021/11/24 00:33:29;;;;;;;80.15;39.15;;;7.30;99.90;;;;;;5112162;28;20041;-46
2021/11/24 00:35:54;;;;;;;83.88;39.58;;;7.30;99.90;;;;;;5111754;27;20610;-47
2021/11/24 00:38:20;;;;;;;80.80;37.13;;;7.30;99.90;;;;;;5110526;28;20038;-49
2021/11/24 00:40:46;;;;;;;72.88;33.97;;;7.30;99.90;;;;;;5111239;28;20024;-50
2021/11/24 00:43:11;;;;;;;76.65;36.00;;;7.30;99.90;;;;;;5111120;28;20400;-50
2021/11/24 00:45:37;;;;;;;67.55;33.60;;;7.30;99.90;;;;;;5110397;28;20386;-47
2021/11/24 00:48:04;;;;;;;72.57;35.50;;;7.30;99.90;;;;;;5110671;28;20250;-47
2021/11/24 00:50:30;;;;;;;63.17;32.58;;;7.30;99.90;;;;;;5101162;28;20023;-47
2021/11/24 00:52:55;;;;;;;70.03;35.55;;;7.30;99.90;;;;;;5102201;28;20413;-48
2021/11/24 00:55:21;;;;;;;65.00;32.47;;;7.30;99.90;;;;;;5110482;28;20115;-46
2021/11/24 00:57:47;;;;;;;73.88;35.63;;;7.30;99.90;;;;;;5109948;28;20076;-48
2021/11/24 01:00:15;;;;;;;75.15;34.63;;;7.30;99.90;;;;;;5109787;28;20493;-47
2021/11/24 01:02:42;;;;;;;74.18;34.22;;;7.30;99.90;;;;;;5110197;28;20470;-49
2021/11/24 01:05:08;;;;;;;72.80;35.88;;;7.30;99.90;;;;;;5108725;28;20031;-47
2021/11/24 01:07:34;;;;;;;86.78;41.20;;;7.30;99.90;;;;;;5110332;28;20052;-47
2021/11/24 01:10:00;;;;;;;78.90;38.70;;;7.30;99.90;;;;;;5109441;28;20051;-47
2021/11/24 01:12:25;;;;;;;79.25;37.25;;;7.30;99.90;;;;;;5110013;28;20016;-47
2021/11/24 01:14:51;;;;;;;86.30;40.22;;;7.30;99.90;;;;;;5110290;28;20635;-47
2021/11/24 01:17:18;;;;;;;77.00;36.55;;;7.30;99.90;;;;;;5110346;28;20034;-48
2021/11/24 01:19:43;;;;;;;83.90;39.28;;;7.30;99.90;;;;;;5102428;28;20074;-50
2021/11/24 01:22:09;;;;;;;87.90;38.85;;;7.30;99.90;;;;;;5100116;28;20024;-47
2021/11/24 01:24:35;;;;;;;79.22;36.83;;;7.30;99.90;;;;;;5109934;28;20035;-49
2021/11/24 01:27:01;;;;;;;87.75;39.33;;;7.30;99.90;;;;;;5109914;28;20023;-47
2021/11/24 01:29:27;;;;;;;92.40;41.08;;;7.30;99.90;;;;;;5109830;28;20027;-47
2021/11/24 01:31:52;;;;;;;95.53;44.03;;;7.30;99.90;;;;;;5109349;28;20310;-47
2021/11/24 01:34:18;;;;;;;86.93;40.92;;;7.30;99.90;;;;;;5109897;28;20016;-47
2021/11/24 01:36:44;;;;;;;81.60;37.78;;;7.40;99.90;;;;;;5109600;28;20061;-48
2021/11/24 01:39:09;;;;;;;82.93;39.33;;;7.40;99.90;;;;;;5108441;28;20029;-47
2021/11/24 01:41:35;;;;;;;78.65;36.85;;;7.30;99.90;;;;;;5109446;28;20413;-48
2021/11/24 01:44:01;;;;;;;89.57;41.38;;;7.40;99.90;;;;;;5052315;28;1650446;-47
2021/11/24 01:46:28;;;;;;;87.00;39.83;;;7.40;99.90;;;;;;5110957;28;20030;-47
2021/11/24 01:48:53;;;;;;;79.07;37.10;;;7.30;99.90;;;;;;5108873;28;20126;-47
2021/11/24 01:51:20;;;;;;;94.22;41.45;;;7.40;99.90;;;;;;5097879;28;20095;-47
2021/11/24 01:53:46;;;;;;;91.57;41.65;;;7.30;99.90;;;;;;5106719;28;20246;-48
2021/11/24 01:56:12;;;;;;;85.47;42.20;;;7.30;99.90;;;;;;5109304;28;20503;-47
2021/11/24 01:58:38;;;;;;;86.78;39.30;;;7.40;99.90;;;;;;5110159;28;20024;-47
2021/11/24 02:01:05;;;;;;;90.97;39.70;;;7.30;99.90;;;;;;5108415;28;20028;-47
2021/11/24 02:03:31;;;;;;;86.28;38.53;;;7.30;99.90;;;;;;5110146;28;20031;-47
2021/11/24 02:05:57;;;;;;;81.05;39.65;;;7.30;99.90;;;;;;5110273;28;20032;-46
2021/11/24 02:08:23;;;;;;;89.95;40.05;;;7.30;99.90;;;;;;5110008;28;20035;-50
2021/11/24 02:10:48;;;;;;;79.57;36.50;;;7.40;99.90;;;;;;5109000;28;20016;-47
2021/11/24 02:13:14;;;;;;;84.97;38.90;;;7.40;99.90;;;;;;5110008;28;20016;-47
2021/11/24 02:15:40;;;;;;;86.95;37.05;;;7.40;99.90;;;;;;5110064;28;20419;-47
2021/11/24 02:18:07;;;;;;;74.88;35.45;;;7.40;99.90;;;;;;5109983;28;20031;-47
2021/11/24 02:20:44;;;;;;;79.75;34.90;;;7.40;99.90;;;;;;5099693;28;20022;-47
2021/11/24 02:23:12;;;;;;;73.10;35.42;;;7.40;99.90;;;;;;5101520;28;20026;-49
2021/11/24 02:25:39;;;;;;;80.63;36.60;;;7.40;99.90;;;;;;5108587;28;20024;-48
2021/11/24 02:28:04;;;;;;;76.38;35.13;;;7.40;99.90;;;;;;5110296;28;20362;-50
2021/11/24 02:30:30;;;;;;;73.95;35.63;;;7.40;99.90;;;;;;5109595;28;20109;-48
2021/11/24 02:32:56;;;;;;;77.90;35.50;;;7.40;99.90;;;;;;5110080;28;20177;-50
2021/11/24 02:35:23;;;;;;;78.10;36.13;;;7.30;99.90;;;;;;5109903;28;20034;-51
2021/11/24 02:37:48;;;;;;;80.93;35.90;;;7.30;99.90;;;;;;5109718;28;20026;-49
2021/11/24 02:40:14;;;;;;;78.68;35.47;;;7.30;99.90;;;;;;5108875;28;20025;-50
2021/11/24 02:42:41;;;;;;;73.82;35.25;;;7.30;99.90;;;;;;5109312;28;20031;-48
2021/11/24 02:45:07;;;;;;;80.97;36.15;;;7.30;99.90;;;;;;5109447;28;20027;-46
2021/11/24 02:47:33;;;;;;;75.10;35.10;;;7.40;99.90;;;;;;5109583;28;20031;-47
2021/11/24 02:50:03;;;;;;;76.80;35.45;;;7.30;99.90;;;;;;5101059;28;20028;-50
2021/11/24 02:52:32;;;;;;;81.13;36.88;;;7.40;99.90;;;;;;5100307;28;20054;-47
2021/11/24 02:55:01;;;;;;;78.35;35.83;;;7.30;99.90;;;;;;5109194;28;20051;-48
2021/11/24 02:57:42;;;;;;;70.38;33.95;;;7.40;99.90;;;;;;5109220;28;20023;-48
2021/11/24 03:00:28;;;;;;;83.13;36.65;;;7.40;99.90;;;;;;5107689;28;20028;-48
2021/11/24 03:02:54;;;;;;;78.07;35.08;;;7.40;99.90;;;;;;5109431;28;20023;-48
2021/11/24 03:05:23;;;;;;;77.40;36.40;;;7.40;99.90;;;;;;5107501;28;20081;-49
2021/11/24 03:07:50;;;;;;;77.05;35.72;;;7.40;99.90;;;;;;5108992;28;20135;-48
2021/11/24 03:10:17;;;;;;;83.93;37.85;;;7.30;99.90;;;;;;5108565;28;20028;-48
2021/11/24 03:12:43;;;;;;;80.32;36.55;;;7.40;99.90;;;;;;5109021;28;20031;-50
2021/11/24 03:15:09;;;;;;;77.03;34.22;;;7.40;99.90;;;;;;5109317;27;20081;-47
2021/11/24 03:17:36;;;;;;;77.75;36.47;;;7.30;99.90;;;;;;5109621;28;20024;-47
2021/11/24 03:20:08;;;;;;;80.32;33.80;;;7.30;99.90;;;;;;5091957;28;20450;-47
2021/11/24 03:22:35;;;;;;;81.60;36.22;;;7.30;99.90;;;;;;5100299;28;20378;-47
2021/11/24 03:25:01;;;;;;;79.18;35.95;;;7.30;99.90;;;;;;5108834;28;20076;-47
2021/11/24 03:27:33;;;;;;;84.28;36.63;;;7.40;99.90;;;;;;5108781;28;20051;-47
2021/11/24 03:30:00;;;;;;;84.13;34.03;;;7.40;99.90;;;;;;5108795;28;20296;-47
2021/11/24 03:32:27;;;;;;;78.32;34.92;;;7.40;99.90;;;;;;5108064;28;20027;-49
2021/11/24 03:34:53;;;;;;;81.38;36.75;;;7.40;99.90;;;;;;5107161;28;20489;-48
2021/11/24 03:37:19;;;;;;;84.70;37.05;;;7.30;99.90;;;;;;5109020;28;20035;-47
2021/11/24 03:39:47;;;;;;;86.55;34.55;;;7.30;99.90;;;;;;5108557;28;20185;-47
2021/11/24 03:42:13;;;;;;;79.15;34.42;;;7.30;99.90;;;;;;5107561;28;20061;-48
2021/11/24 03:44:39;;;;;;;89.95;35.78;;;7.40;99.90;;;;;;5108466;28;20481;-49
2021/11/24 03:47:04;;;;;;;77.10;35.33;;;7.40;99.90;;;;;;5109043;28;20063;-47
2021/11/24 03:49:30;;;;;;;81.05;34.92;;;7.40;99.90;;;;;;5099363;28;20123;-47
2021/11/24 03:51:56;;;;;;;82.10;35.00;;;7.40;99.90;;;;;;5086333;28;20031;-47
2021/11/24 03:54:22;;;;;;;88.10;37.78;;;7.40;99.90;;;;;;5107619;28;20039;-47
2021/11/24 03:56:47;;;;;;;93.50;38.53;;;7.40;99.90;;;;;;5088717;28;20103;-47
2021/11/24 03:59:13;;;;;;;91.65;37.90;;;7.30;99.90;;;;;;5088316;28;20028;-47
2021/11/24 04:01:39;;;;;;;78.15;36.33;;;7.30;99.90;;;;;;5087329;28;20174;-47
2021/11/24 04:04:05;;;;;;;90.15;37.08;;;7.30;99.90;;;;;;5087928;28;20355;-47
2021/11/24 04:06:32;;;;;;;81.70;36.58;;;7.30;99.90;;;;;;5087795;28;20095;-46
2021/11/24 04:08:58;;;;;;;94.88;38.95;;;7.30;99.90;;;;;;5087744;28;20042;-46
2021/11/24 04:11:25;;;;;;;78.10;36.25;;;7.30;99.90;;;;;;5087202;28;20558;-46
2021/11/24 04:13:51;;;;;;;79.93;34.80;;;7.30;99.90;;;;;;5087740;28;20444;-48
2021/11/24 04:16:16;;;;;;;82.63;35.08;;;7.30;99.90;;;;;;5086409;28;20021;-46
2021/11/24 04:18:42;;;;;;;91.43;37.65;;;7.40;99.90;;;;;;5088075;28;20436;-47
2021/11/24 04:21:07;;;;;;;88.13;36.33;;;7.30;99.90;;;;;;5086477;28;20057;-47
2021/11/24 04:23:33;;;;;;;85.82;36.30;;;7.40;99.90;;;;;;5093426;28;20024;-47
2021/11/24 04:25:59;;;;;;;87.70;38.25;;;7.40;99.90;;;;;;5087980;28;20056;-46
2021/11/24 04:28:24;;;;;;;79.40;35.75;;;7.40;99.90;;;;;;5087946;28;20052;-46
2021/11/24 04:30:50;;;;;;;81.75;36.42;;;7.40;99.90;;;;;;5088729;28;20059;-46
2021/11/24 04:33:16;;;;;;;87.80;35.88;;;7.40;99.90;;;;;;5090117;28;20023;-48
2021/11/24 04:35:43;;;;;;;92.93;39.33;;;7.40;99.90;;;;;;5091460;28;20024;-47
2021/11/24 04:38:09;;;;;;;87.90;38.60;;;7.40;99.90;;;;;;5091367;28;20024;-46
2021/11/24 04:40:35;;;;;;;94.03;39.40;;;7.40;99.90;;;;;;5089121;28;20134;-46
2021/11/24 04:43:03;;;;;;;99.03;39.22;;;7.40;99.90;;;;;;5091184;28;20039;-49
2021/11/24 04:45:29;;;;;;;84.50;37.72;;;7.40;99.90;;;;;;5091560;28;20106;-45
2021/11/24 04:47:55;;;;;;;85.32;38.75;;;7.40;99.90;;;;;;5090171;28;20274;-47
2021/11/24 04:50:21;;;;;;;81.80;35.33;;;7.40;99.90;;;;;;5094876;28;20055;-46
2021/11/24 04:52:47;;;;;;;85.22;37.88;;;7.40;99.90;;;;;;5085159;28;20047;-46
2021/11/24 04:55:14;;;;;;;76.53;34.20;;;7.40;99.90;;;;;;5111845;28;20023;-46
2021/11/24 04:57:40;;;;;;;93.55;37.40;;;7.40;99.90;;;;;;5091369;28;20016;-45
2021/11/24 05:00:11;;;;;;;85.35;37.25;;;7.30;99.90;;;;;;5089603;28;20028;-46
2021/11/24 05:02:37;;;;;;;80.55;35.40;;;7.40;99.90;;;;;;5090574;28;20035;-46
2021/11/24 05:05:03;;;;;;;78.22;35.67;;;7.40;99.90;;;;;;5089878;28;20028;-49
2021/11/24 05:07:29;;;;;;;79.32;34.40;;;7.30;99.90;;;;;;5091126;28;20032;-47
2021/11/24 05:09:54;;;;;;;83.80;36.83;;;7.30;99.90;;;;;;5091546;28;20244;-47
2021/11/24 05:12:21;;;;;;;81.40;37.22;;;7.30;99.90;;;;;;5090468;28;20478;-50
2021/11/24 05:14:49;;;;;;;76.18;34.47;;;7.20;99.90;;;;;;5091014;28;20111;-46
2021/11/24 05:17:17;;;;;;;79.88;34.45;;;7.30;99.90;;;;;;5091065;28;20638;-48
2021/11/24 05:19:47;;;;;;;85.97;35.13;;;7.20;99.90;;;;;;5084228;28;20021;-48
2021/11/24 05:22:13;;;;;;;79.68;35.55;;;7.20;99.90;;;;;;5101756;28;20016;-47
2021/11/24 05:24:39;;;;;;;79.78;35.80;;;7.20;99.90;;;;;;5111338;28;20035;-46
2021/11/24 05:27:05;;;;;;;87.70;34.90;;;7.20;99.90;;;;;;5111227;28;20073;-47
2021/11/24 05:29:31;;;;;;;81.57;34.92;;;7.30;99.90;;;;;;5109876;28;20031;-47
2021/11/24 05:31:57;;;;;;;71.47;33.35;;;7.20;99.90;;;;;;5090790;27;20035;-47
2021/11/24 05:34:23;;;;;;;79.38;35.72;;;7.20;99.90;;;;;;5090789;28;20641;-47
2021/11/24 05:36:48;;;;;;;81.95;34.33;;;7.20;99.90;;;;;;5090673;28;20488;-48
2021/11/24 05:39:14;;;;;;;85.70;33.85;;;7.20;99.90;;;;;;5090600;28;20039;-50
2021/11/24 05:41:41;;;;;;;76.13;33.10;;;7.20;99.90;;;;;;5089992;28;20085;-46
2021/11/24 05:44:25;;;;;;;84.68;33.83;;;7.20;99.90;;;;;;5089261;28;20103;-47
2021/11/24 05:46:59;;;;;;;68.97;33.00;;;7.20;99.90;;;;;;5090448;28;20023;-47
2021/11/24 05:49:26;;;;;;;78.00;33.85;;;7.20;99.90;;;;;;5089482;28;20024;-47
2021/11/24 05:51:53;;;;;;;76.38;34.22;;;7.20;99.90;;;;;;5091877;28;20055;-48
2021/11/24 05:54:19;;;;;;;76.47;32.60;;;7.20;99.90;;;;;;5093519;28;20366;-47
2021/11/24 05:56:45;;;;;;;79.93;33.53;;;7.20;99.90;;;;;;5100056;28;20024;-47
2021/11/24 05:59:14;;;;;;;85.55;34.50;;;7.20;99.90;;;;;;5110339;28;20015;-47
2021/11/24 06:01:40;;;;;;;82.60;35.42;;;7.20;99.90;;;;;;5084579;28;20493;-47
2021/11/24 06:04:06;;;;;;;77.13;33.03;;;7.10;99.90;;;;;;5088774;28;20032;-47
2021/11/24 06:06:32;;;;;;;82.10;33.63;;;7.20;99.90;;;;;;5089535;28;20354;-47
2021/11/24 06:08:58;;;;;;;80.05;36.30;;;7.20;99.90;;;;;;5088872;28;20031;-48
2021/11/24 06:11:25;;;;;;;87.00;33.70;;;7.20;99.90;;;;;;5088612;28;20465;-49
2021/11/24 06:13:51;;;;;;;82.00;34.67;;;7.10;99.90;;;;;;5088775;28;20019;-47
2021/11/24 06:16:17;;;;;;;80.00;33.13;;;7.10;99.90;;;;;;5091390;28;20030;-48
2021/11/24 06:18:43;;;;;;;79.10;33.42;;;7.10;99.90;;;;;;5089989;28;20024;-47
2021/11/24 06:21:08;;;;;;;81.60;34.28;;;7.10;99.90;;;;;;5091518;28;20023;-50
2021/11/24 06:23:39;;;;;;;85.07;34.83;;;7.10;99.90;;;;;;5086814;28;20069;-48
2021/11/24 06:26:06;;;;;;;76.57;33.00;;;7.10;99.90;;;;;;5083519;28;20037;-51
2021/11/24 06:28:31;;;;;;;79.22;34.53;;;7.10;99.90;;;;;;5091208;28;20221;-50
2021/11/24 06:30:57;;;;;;;81.20;35.58;;;7.10;99.90;;;;;;5083489;28;20028;-49
2021/11/24 06:33:22;;;;;;;73.32;32.95;;;7.10;99.90;;;;;;5080758;28;20016;-49
2021/11/24 06:35:48;;;;;;;70.53;33.00;;;7.10;99.90;;;;;;5083422;28;20113;-51
2021/11/24 06:38:14;;;;;;;79.85;33.67;;;7.10;99.90;;;;;;5076547;28;20417;-51
2021/11/24 06:40:39;;;;;;;78.47;34.55;;;7.10;99.90;;;;;;5086218;28;20051;-49
2021/11/24 06:43:05;;;;;;;71.63;32.28;;;7.00;99.90;;;;;;5087300;28;20054;-48
2021/11/24 06:45:31;;;;;;;68.47;30.55;;;7.10;99.90;;;;;;5083553;28;20055;-49
2021/11/24 06:47:56;;;;;;;63.30;29.77;;;7.00;99.90;;;;;;5089495;28;20032;-50
2021/11/24 06:50:23;;;;;;;72.10;30.77;;;7.00;99.90;;;;;;5081927;28;20119;-49
2021/11/24 06:52:49;;;;;;;69.25;30.30;;;7.10;99.90;;;;;;5092193;28;20091;-50
2021/11/24 06:55:15;;;;;;;72.60;31.65;;;7.00;99.90;;;;;;5087883;28;20124;-48
2021/11/24 06:57:41;;;;;;;66.82;31.10;;;7.10;99.90;;;;;;5087539;28;20028;-48
2021/11/24 07:00:09;;;;;;;70.63;29.05;;;7.00;99.90;;;;;;5086965;28;20020;-51
2021/11/24 07:02:35;;;;;;;77.25;32.17;;;7.10;99.90;;;;;;5089973;28;20095;-48
2021/11/24 07:05:00;;;;;;;69.00;29.08;;;7.00;99.90;;;;;;5084874;28;20123;-50
2021/11/24 07:07:26;;;;;;;63.83;28.42;;;7.00;99.90;;;;;;5090117;28;20031;-51
2021/11/24 07:09:52;;;;;;;68.85;30.25;;;7.10;99.90;;;;;;5090154;28;20027;-48
2021/11/24 07:12:19;;;;;;;63.65;29.15;;;7.10;99.90;;;;;;5081406;28;20029;-51
2021/11/24 07:14:45;;;;;;;67.28;30.30;;;7.10;99.90;;;;;;5085909;28;20111;-50
2021/11/24 07:17:10;;;;;;;62.35;27.35;;;7.10;99.90;;;;;;5086247;28;20098;-51
2021/11/24 07:19:37;;;;;;;69.00;30.17;;;7.10;99.90;;;;;;5081002;28;20028;-51
2021/11/24 07:22:03;;;;;;;66.03;29.25;;;7.10;99.90;;;;;;5091119;28;20666;-51
2021/11/24 07:24:29;;;;;;;59.80;27.05;;;7.10;99.90;;;;;;5099984;28;20122;-49
2021/11/24 07:26:55;;;;;;;65.28;28.30;;;7.10;99.90;;;;;;5100307;28;20431;-49
2021/11/24 07:29:21;;;;;;;72.07;30.88;;;7.10;99.90;;;;;;5076695;28;20032;-49
2021/11/24 07:31:47;;;;;;;69.00;30.40;;;7.10;99.90;;;;;;5071150;28;20012;-48
2021/11/24 07:34:13;;;;;;;63.25;27.98;;;7.10;99.90;;;;;;5088173;28;20016;-48
2021/11/24 07:36:40;;;;;;;64.25;26.98;;;7.10;99.90;;;;;;5090289;28;20099;-48
2021/11/24 07:39:06;;;;;;;62.63;27.90;;;7.20;99.90;;;;;;5090413;28;20081;-48
2021/11/24 07:41:31;;;;;;;62.33;28.27;;;7.20;99.90;;;;;;5099059;28;20031;-48
2021/11/24 07:43:57;;;;;;;65.03;28.60;;;7.20;99.90;;;;;;5108945;28;20498;-50
2021/11/24 07:46:23;;;;;;;63.78;27.63;;;7.20;99.90;;;;;;5087823;28;20028;-48
2021/11/24 07:48:48;;;;;;;62.63;28.88;;;7.20;99.90;;;;;;5079298;28;20029;-49
2021/11/24 07:51:17;;;;;;;69.63;31.15;;;7.30;99.90;;;;;;5093128;28;20489;-48
2021/11/24 07:53:44;;;;;;;69.63;30.10;;;7.20;99.90;;;;;;5094378;28;20008;-49
2021/11/24 07:56:10;;;;;;;65.07;30.63;;;7.20;99.90;;;;;;5096771;28;20481;-47
2021/11/24 07:58:36;;;;;;;60.28;28.35;;;7.30;99.90;;;;;;5097654;28;20036;-48
2021/11/24 08:01:02;;;;;;;66.30;29.40;;;7.30;99.90;;;;;;5093990;28;20692;-47
2021/11/24 08:03:28;;;;;;;64.60;28.33;;;7.30;99.90;;;;;;5095209;28;20023;-47
2021/11/24 08:05:53;;;;;;;72.20;29.45;;;7.30;99.90;;;;;;5084642;28;20040;-47
2021/11/24 08:08:19;;;;;;;61.95;28.20;;;7.30;99.90;;;;;;5085552;28;20107;-47
2021/11/24 08:10:45;;;;;;;63.47;27.77;;;7.40;99.90;;;;;;5090543;28;20031;-49
2021/11/24 08:13:10;;;;;;;58.47;27.50;;;7.40;99.90;;;;;;5091930;28;20016;-48
2021/11/24 08:15:36;;;;;;;57.80;26.45;;;7.40;99.90;;;;;;5085513;28;20462;-48
2021/11/24 08:18:02;;;;;;;64.70;28.30;;;7.40;99.90;;;;;;5083535;28;20469;-48
2021/11/24 08:20:27;;;;;;;50.88;24.88;;;7.40;99.90;;;;;;5096653;28;20047;-49
2021/11/24 08:22:53;;;;;;;61.15;29.38;;;7.40;99.90;;;;;;5090607;28;20062;-47
2021/11/24 08:25:19;;;;;;;57.90;27.73;;;7.40;99.90;;;;;;5098605;28;20036;-48
2021/11/24 08:27:44;;;;;;;51.20;25.25;;;7.50;99.90;;;;;;5106733;28;20028;-47
2021/11/24 08:30:10;;;;;;;59.53;26.25;;;7.60;99.90;;;;;;5095387;28;20642;-48
2021/11/24 08:32:36;;;;;;;54.95;26.25;;;7.60;99.90;;;;;;5076371;28;20032;-48
2021/11/24 08:35:05;;;;;;;47.22;23.20;;;7.60;99.90;;;;;;5075867;28;20020;-48
2021/11/24 08:37:31;;;;;;;47.13;24.05;;;7.60;99.90;;;;;;5099840;28;20058;-47
2021/11/24 08:39:56;;;;;;;43.92;22.15;;;7.60;99.90;;;;;;5096580;28;20482;-50
2021/11/24 08:42:25;;;;;;;50.63;22.25;;;7.70;99.90;;;;;;5077276;28;20563;-48
2021/11/24 08:44:52;;;;;;;47.47;22.40;;;7.70;99.90;;;;;;5097286;28;20422;-48
2021/11/24 08:47:18;;;;;;;42.28;21.70;;;7.70;99.90;;;;;;5103262;28;20110;-48
2021/11/24 08:49:44;;;;;;;46.53;22.42;;;7.70;99.90;;;;;;5101183;28;20035;-48
2021/11/24 08:52:10;;;;;;;42.00;22.00;;;7.70;99.90;;;;;;5101856;28;20016;-48
2021/11/24 08:54:37;;;;;;;43.95;20.90;;;7.80;99.90;;;;;;5101165;28;20024;-50
2021/11/24 08:57:04;;;;;;;43.35;21.17;;;7.80;99.90;;;;;;5089796;28;20024;-48
2021/11/24 08:59:30;;;;;;;48.17;23.27;;;7.90;99.90;;;;;;5086600;28;20036;-49
2021/11/24 09:01:55;;;;;;;40.10;21.73;;;7.90;99.90;;;;;;5090256;28;20522;-48
2021/11/24 09:04:21;;;;;;;41.22;20.20;;;7.90;99.90;;;;;;5089888;28;20032;-49
2021/11/24 09:06:47;;;;;;;42.38;19.85;;;8.00;99.90;;;;;;5088572;28;20050;-47
2021/11/24 09:09:13;;;;;;;41.90;20.60;;;7.90;99.90;;;;;;5089446;28;20072;-49
2021/11/24 09:11:39;;;;;;;39.47;20.05;;;8.00;99.90;;;;;;5087569;28;20028;-49
2021/11/24 09:14:05;;;;;;;36.20;18.35;;;8.00;99.90;;;;;;5092160;28;20039;-50
2021/11/24 09:16:31;;;;;;;46.78;23.02;;;7.90;99.90;;;;;;5090960;28;20035;-47
2021/11/24 09:18:57;;;;;;;45.60;22.85;;;8.00;99.90;;;;;;5092007;28;20028;-48
2021/11/24 09:21:24;;;;;;;41.42;21.88;;;7.90;99.90;;;;;;5084168;28;20029;-49
2021/11/24 09:23:50;;;;;;;39.55;21.05;;;7.90;99.90;;;;;;5107529;28;20035;-49
2021/11/24 09:26:26;;;;;;;46.17;23.13;;;8.00;99.90;;;;;;5088176;28;20250;-50
2021/11/24 09:28:53;;;;;;;46.33;24.60;;;8.00;99.90;;;;;;5074938;28;20100;-47
2021/11/24 09:31:19;;;;;;;54.85;25.27;;;8.00;99.90;;;;;;5078706;28;20024;-50
2021/11/24 09:33:45;;;;;;;46.50;24.10;;;8.00;99.90;;;;;;5070656;28;20025;-48
2021/11/24 09:36:12;;;;;;;44.08;23.60;;;8.10;99.90;;;;;;5073264;28;20051;-49
2021/11/24 09:38:39;;;;;;;47.42;24.38;;;8.10;99.90;;;;;;5090800;28;20021;-48
2021/11/24 09:41:09;;;;;;;51.83;24.55;;;8.20;99.90;;;;;;5073890;28;20048;-47
2021/11/24 09:43:38;;;;;;;42.08;21.80;;;8.30;99.90;;;;;;5088146;28;20385;-47
2021/11/24 09:46:04;;;;;;;46.38;23.83;;;8.40;99.90;;;;;;5080936;28;20187;-49
2021/11/24 09:48:31;;;;;;;45.60;21.75;;;8.30;99.90;;;;;;5079227;28;20024;-49
2021/11/24 09:50:57;;;;;;;43.53;21.58;;;8.40;99.90;;;;;;5093796;28;20493;-47
2021/11/24 09:53:24;;;;;;;42.13;21.70;;;8.50;99.90;;;;;;5096320;28;20031;-48
2021/11/24 09:55:52;;;;;;;44.70;22.02;;;8.60;99.90;;;;;;5089057;28;20024;-49
2021/11/24 09:58:18;;;;;;;44.95;22.38;;;8.60;99.90;;;;;;5084095;28;20636;-48
2021/11/24 10:00:45;;;;;;;46.95;20.85;;;8.60;99.90;;;;;;5075646;28;20095;-48
2021/11/24 10:03:13;;;;;;;39.67;21.52;;;8.60;99.90;;;;;;5091736;28;20443;-48
2021/11/24 10:05:39;;;;;;;44.70;21.50;;;8.60;99.90;;;;;;5093367;28;20055;-47
2021/11/24 10:08:06;;;;;;;40.83;20.02;;;8.60;99.90;;;;;;5089902;28;20063;-50
2021/11/24 10:10:32;;;;;;;37.38;20.02;;;8.70;99.90;;;;;;5095996;28;20278;-48
2021/11/24 10:12:58;;;;;;;34.80;18.13;;;8.70;99.90;;;;;;5092560;28;20050;-48
2021/11/24 10:15:34;;;;;;;36.90;19.33;;;8.70;99.90;;;;;;5096792;28;20466;-50
2021/11/24 10:18:19;;;;;;;34.97;19.13;;;8.80;99.90;;;;;;5088358;28;20504;-49
2021/11/24 10:20:54;;;;;;;32.33;17.92;;;8.80;99.90;;;;;;5088995;28;20478;-47
2021/11/24 10:23:23;;;;;;;34.30;18.52;;;8.90;99.90;;;;;;5090856;28;20500;-47
2021/11/24 10:25:49;;;;;;;42.33;19.23;;;8.80;99.90;;;;;;5094859;28;20023;-48
2021/11/24 10:28:28;;;;;;;32.80;17.35;;;8.80;99.90;;;;;;5082584;28;20032;-48
2021/11/24 10:30:56;;;;;;;31.17;16.27;;;8.80;99.90;;;;;;5070169;28;20233;-47
2021/11/24 10:33:26;;;;;;;31.83;17.00;;;8.80;99.90;;;;;;5089429;28;20666;-50
2021/11/24 10:36:03;;;;;;;34.10;18.37;;;8.80;99.90;;;;;;5086315;28;20016;-49
2021/11/24 10:38:38;;;;;;;29.25;15.98;;;8.60;99.90;;;;;;5088214;28;20284;-47
2021/11/24 10:41:04;;;;;;;31.63;16.02;;;8.70;99.90;;;;;;5087850;28;20059;-50
2021/11/24 10:43:43;;;;;;;30.77;15.30;;;8.60;99.90;;;;;;5089024;28;20430;-47
2021/11/24 10:46:11;;;;;;;28.75;16.33;;;8.70;99.90;;;;;;5088226;28;20028;-48
2021/11/24 10:48:37;;;;;;;28.45;14.82;;;8.60;99.90;;;;;;5090715;28;20051;-48
2021/11/24 10:51:30;;;;;;;32.03;14.48;;;8.60;99.90;;;;;;5091742;28;20064;-48
2021/11/24 10:54:11;;;;;;;28.17;15.00;;;8.60;99.90;;;;;;5102881;28;20042;-48
2021/11/24 10:57:03;;;;;;;25.73;13.93;;;8.60;99.90;;;;;;5074799;28;20220;-47
2021/11/24 10:59:38;;;;;;;27.27;14.00;;;8.60;99.90;;;;;;5074625;28;20398;-47
2021/11/24 11:02:17;;;;;;;27.05;14.02;;;8.60;99.90;;;;;;5081547;28;20324;-49
2021/11/24 11:04:57;;;;;;;30.23;13.82;;;8.60;99.90;;;;;;5088928;28;20035;-48
2021/11/24 11:07:23;;;;;;;28.02;14.13;;;8.70;99.90;;;;;;5086506;28;20024;-48
2021/11/24 11:10:01;;;;;;;35.13;15.65;;;8.60;99.90;;;;;;5085989;28;20110;-49
2021/11/24 11:12:28;;;;;;;25.17;12.55;;;8.70;99.90;;;;;;5086434;28;20026;-48
2021/11/24 11:14:54;;;;;;;21.85;12.00;;;8.60;99.90;;;;;;5090689;28;20023;-48
2021/11/24 11:17:20;;;;;;;21.38;12.30;;;8.70;99.90;;;;;;5096888;28;20537;-48
2021/11/24 11:19:50;;;;;;;20.77;11.77;;;8.70;99.90;;;;;;5082818;28;20063;-50
2021/11/24 11:22:19;;;;;;;26.85;13.68;;;8.80;99.90;;;;;;5094917;28;20062;-49
2021/11/24 11:24:45;;;;;;;23.23;12.07;;;8.70;99.90;;;;;;5109013;28;20036;-48
2021/11/24 11:27:11;;;;;;;22.15;12.55;;;8.70;99.90;;;;;;5091326;28;20088;-47
2021/11/24 11:29:40;;;;;;;24.63;12.45;;;8.60;99.90;;;;;;5076806;28;20040;-48
2021/11/24 11:32:07;;;;;;;22.30;12.48;;;8.60;99.90;;;;;;5068059;28;20070;-47
2021/11/24 11:34:33;;;;;;;20.13;10.65;;;8.60;99.90;;;;;;5086116;28;20031;-50
2021/11/24 11:36:59;;;;;;;19.55;11.40;;;8.70;99.90;;;;;;5087101;28;20020;-48
2021/11/24 11:39:25;;;;;;;20.63;11.48;;;8.70;99.90;;;;;;5087813;28;20024;-47
2021/11/24 11:41:51;;;;;;;20.27;11.45;;;8.60;99.90;;;;;;5089084;28;20020;-48
2021/11/24 11:44:19;;;;;;;18.73;11.15;;;8.70;99.90;;;;;;5100554;28;20047;-47
2021/11/24 11:46:49;;;;;;;23.00;11.48;;;8.80;99.90;;;;;;5103508;28;20396;-50
2021/11/24 11:49:18;;;;;;;16.17;9.30;;;8.80;99.90;;;;;;5089783;28;20028;-48
2021/11/24 11:51:45;;;;;;;21.58;11.55;;;8.80;99.90;;;;;;5096758;28;20024;-48
2021/11/24 11:54:25;;;;;;;23.08;11.70;;;8.70;99.90;;;;;;5104841;28;20143;-47
2021/11/24 11:56:52;;;;;;;19.40;9.18;;;8.60;99.90;;;;;;5077387;28;20507;-50
2021/11/24 11:59:28;;;;;;;17.52;10.57;;;8.70;99.90;;;;;;5074103;28;20388;-47
2021/11/24 12:02:03;;;;;;;15.60;8.75;;;8.70;99.90;;;;;;5100579;28;20056;-47
2021/11/24 12:04:45;;;;;;;16.20;8.43;;;8.80;99.90;;;;;;5099546;28;20028;-48
2021/11/24 12:07:16;;;;;;;13.50;6.70;;;8.90;99.90;;;;;;5079762;28;20094;-49
2021/11/24 12:09:47;;;;;;;11.55;6.60;;;8.80;99.90;;;;;;5101812;28;20465;-48
2021/11/24 12:12:26;;;;;;;12.40;6.95;;;8.90;99.90;;;;;;5091087;28;20122;-48
2021/11/24 12:14:59;;;;;;;18.08;8.25;;;8.90;99.90;;;;;;5090958;28;20521;-48
2021/11/24 12:17:31;;;;;;;20.73;9.25;;;8.90;99.90;;;;;;5091994;28;20056;-47
2021/11/24 12:20:12;;;;;;;16.98;9.73;;;8.80;99.90;;;;;;5085673;28;20103;-48
2021/11/24 12:22:50;;;;;;;20.23;9.95;;;8.90;99.90;;;;;;5101901;28;20089;-49
2021/11/24 12:25:30;;;;;;;16.92;9.32;;;8.60;99.90;;;;;;5079628;28;20532;-48
2021/11/24 12:27:58;;;;;;;18.00;9.20;;;8.60;99.90;;;;;;5090106;28;20036;-49
2021/11/24 12:30:36;;;;;;;12.48;6.90;;;8.60;99.90;;;;;;5090377;28;20032;-48
2021/11/24 12:33:21;;;;;;;13.65;7.35;;;8.60;99.90;;;;;;5089747;28;20023;-47
2021/11/24 12:35:54;;;;;;;12.77;7.63;;;8.70;99.90;;;;;;5090191;28;20032;-49
2021/11/24 12:38:24;;;;;;;14.85;6.40;;;8.70;99.90;;;;;;5088906;28;20110;-49
2021/11/24 12:40:52;;;;;;;14.60;6.60;;;8.70;99.90;;;;;;5088734;28;20024;-50